sensor_id;sensor_type;location;lat;lon;timestamp;temperature;humidity
66213;SHT31;53015;50.046;8.238;2023-05-20T00:00:09;15.91;62.46
66213;SHT31;53015;50.046;8.238;2023-05-20T00:02:35;15.84;62.66
66213;SHT31;53015;50.046;8.238;2023-05-20T00:05:01;15.84;62.77
66213;SHT31;53015;50.046;8.238;2023-05-20T00:07:27;15.85;62.99
66213;SHT31;53015;50.046;8.238;2023-05-20T00:09:54;15.78;63.14
66213;SHT31;53015;50.046;8.238;2023-05-20T00:12:20;15.81;63.23
66213;SHT31;53015;50.046;8.238;2023-05-20T00:14:45;15.80;63.42
66213;SHT31;53015;50.046;8.238;2023-05-20T00:17:11;15.81;63.38
66213;SHT31;53015;50.046;8.238;2023-05-20T00:19:36;15.78;64.07
66213;SHT31;53015;50.046;8.238;2023-05-20T00:22:02;15.75;64.12
66213;SHT31;53015;50.046;8.238;2023-05-20T00:24:28;15.65;64.66
66213;SHT31;53015;50.046;8.238;2023-05-20T00:26:54;15.61;64.58
66213;SHT31;53015;50.046;8.238;2023-05-20T00:29:20;15.64;65.43
66213;SHT31;53015;50.046;8.238;2023-05-20T00:31:46;15.65;64.78
66213;SHT31;53015;50.046;8.238;2023-05-20T00:34:11;15.63;64.56
66213;SHT31;53015;50.046;8.238;2023-05-20T00:36:37;15.70;64.63
66213;SHT31;53015;50.046;8.238;2023-05-20T00:39:02;15.61;64.85
66213;SHT31;53015;50.046;8.238;2023-05-20T00:41:29;15.58;65.45
66213;SHT31;53015;50.046;8.238;2023-05-20T00:43:55;15.61;65.91
66213;SHT31;53015;50.046;8.238;2023-05-20T00:46:21;15.57;65.16
66213;SHT31;53015;50.046;8.238;2023-05-20T00:48:48;15.55;65.11
66213;SHT31;53015;50.046;8.238;2023-05-20T00:51:14;15.49;66.05
66213;SHT31;53015;50.046;8.238;2023-05-20T00:53:40;15.53;67.03
66213;SHT31;53015;50.046;8.238;2023-05-20T00:56:07;15.44;66.06
66213;SHT31;53015;50.046;8.238;2023-05-20T00:58:34;15.40;65.97
66213;SHT31;53015;50.046;8.238;2023-05-20T01:01:01;15.44;65.91
66213;SHT31;53015;50.046;8.238;2023-05-20T01:03:27;15.36;66.23
66213;SHT31;53015;50.046;8.238;2023-05-20T01:05:52;15.27;67.10
66213;SHT31;53015;50.046;8.238;2023-05-20T01:08:18;15.18;67.81
66213;SHT31;53015;50.046;8.238;2023-05-20T01:10:45;15.25;66.82
66213;SHT31;53015;50.046;8.238;2023-05-20T01:13:16;15.06;68.85
66213;SHT31;53015;50.046;8.238;2023-05-20T01:15:45;15.03;67.70
66213;SHT31;53015;50.046;8.238;2023-05-20T01:18:13;14.92;67.00
66213;SHT31;53015;50.046;8.238;2023-05-20T01:20:38;15.06;68.29
66213;SHT31;53015;50.046;8.238;2023-05-20T01:23:05;15.09;69.20
66213;SHT31;53015;50.046;8.238;2023-05-20T01:25:31;14.91;68.31
66213;SHT31;53015;50.046;8.238;2023-05-20T01:27:56;14.81;69.78
66213;SHT31;53015;50.046;8.238;2023-05-20T01:30:23;14.78;68.22
66213;SHT31;53015;50.046;8.238;2023-05-20T01:32:53;14.74;68.60
66213;SHT31;53015;50.046;8.238;2023-05-20T01:35:21;14.70;67.82
66213;SHT31;53015;50.046;8.238;2023-05-20T01:37:47;14.70;67.66
66213;SHT31;53015;50.046;8.238;2023-05-20T01:40:15;14.63;68.18
66213;SHT31;53015;50.046;8.238;2023-05-20T01:42:42;14.60;68.11
66213;SHT31;53015;50.046;8.238;2023-05-20T01:45:08;14.60;68.70
66213;SHT31;53015;50.046;8.238;2023-05-20T01:47:34;14.56;68.77
66213;SHT31;53015;50.046;8.238;2023-05-20T01:49:59;14.65;69.97
66213;SHT31;53015;50.046;8.238;2023-05-20T01:52:25;14.44;69.28
66213;SHT31;53015;50.046;8.238;2023-05-20T01:54:50;14.54;70.44
66213;SHT31;53015;50.046;8.238;2023-05-20T01:57:18;14.38;70.25
66213;SHT31;53015;50.046;8.238;2023-05-20T01:59:43;14.34;70.71
66213;SHT31;53015;50.046;8.238;2023-05-20T02:02:09;14.29;71.32
66213;SHT31;53015;50.046;8.238;2023-05-20T02:04:34;14.13;70.48
66213;SHT31;53015;50.046;8.238;2023-05-20T02:07:00;14.10;71.67
66213;SHT31;53015;50.046;8.238;2023-05-20T02:09:25;14.08;72.76
66213;SHT31;53015;50.046;8.238;2023-05-20T02:11:51;14.01;72.70
66213;SHT31;53015;50.046;8.238;2023-05-20T02:14:18;13.89;72.47
66213;SHT31;53015;50.046;8.238;2023-05-20T02:16:45;13.74;73.02
66213;SHT31;53015;50.046;8.238;2023-05-20T02:19:10;13.71;72.22
66213;SHT31;53015;50.046;8.238;2023-05-20T02:21:36;13.68;73.48
66213;SHT31;53015;50.046;8.238;2023-05-20T02:24:01;13.48;73.90
66213;SHT31;53015;50.046;8.238;2023-05-20T02:26:27;13.44;74.87
66213;SHT31;53015;50.046;8.238;2023-05-20T02:28:52;13.53;75.52
66213;SHT31;53015;50.046;8.238;2023-05-20T02:31:19;13.53;74.05
66213;SHT31;53015;50.046;8.238;2023-05-20T02:33:45;13.47;75.64
66213;SHT31;53015;50.046;8.238;2023-05-20T02:36:10;13.57;73.22
66213;SHT31;53015;50.046;8.238;2023-05-20T02:38:36;13.68;73.74
66213;SHT31;53015;50.046;8.238;2023-05-20T02:41:01;13.77;74.27
66213;SHT31;53015;50.046;8.238;2023-05-20T02:43:27;13.82;74.81
66213;SHT31;53015;50.046;8.238;2023-05-20T02:45:52;13.71;74.56
66213;SHT31;53015;50.046;8.238;2023-05-20T02:48:19;13.69;74.51
66213;SHT31;53015;50.046;8.238;2023-05-20T02:50:45;13.67;73.60
66213;SHT31;53015;50.046;8.238;2023-05-20T02:53:10;13.68;73.82
66213;SHT31;53015;50.046;8.238;2023-05-20T02:55:36;13.55;73.82
66213;SHT31;53015;50.046;8.238;2023-05-20T02:58:01;13.60;73.03
66213;SHT31;53015;50.046;8.238;2023-05-20T03:00:27;13.67;72.71
66213;SHT31;53015;50.046;8.238;2023-05-20T03:02:52;13.72;72.51
66213;SHT31;53015;50.046;8.238;2023-05-20T03:05:19;13.81;72.20
66213;SHT31;53015;50.046;8.238;2023-05-20T03:07:45;13.82;72.36
66213;SHT31;53015;50.046;8.238;2023-05-20T03:10:10;13.88;71.95
66213;SHT31;53015;50.046;8.238;2023-05-20T03:12:36;13.88;71.98
66213;SHT31;53015;50.046;8.238;2023-05-20T03:15:01;13.94;72.01
66213;SHT31;53015;50.046;8.238;2023-05-20T03:17:27;13.94;71.83
66213;SHT31;53015;50.046;8.238;2023-05-20T03:19:52;13.86;72.28
66213;SHT31;53015;50.046;8.238;2023-05-20T03:22:19;13.81;72.89
66213;SHT31;53015;50.046;8.238;2023-05-20T03:24:45;13.85;72.36
66213;SHT31;53015;50.046;8.238;2023-05-20T03:27:10;13.88;72.37
66213;SHT31;53015;50.046;8.238;2023-05-20T03:29:36;13.90;72.36
66213;SHT31;53015;50.046;8.238;2023-05-20T03:32:01;13.88;72.48
66213;SHT31;53015;50.046;8.238;2023-05-20T03:34:27;13.86;72.59
66213;SHT31;53015;50.046;8.238;2023-05-20T03:36:52;13.83;72.70
66213;SHT31;53015;50.046;8.238;2023-05-20T03:39:19;13.88;72.61
66213;SHT31;53015;50.046;8.238;2023-05-20T03:41:44;13.92;72.59
66213;SHT31;53015;50.046;8.238;2023-05-20T03:44:10;13.86;72.92
66213;SHT31;53015;50.046;8.238;2023-05-20T03:46:35;13.89;72.88
66213;SHT31;53015;50.046;8.238;2023-05-20T03:49:01;13.88;72.83
66213;SHT31;53015;50.046;8.238;2023-05-20T03:51:27;13.92;72.86
66213;SHT31;53015;50.046;8.238;2023-05-20T03:53:52;13.88;72.93
66213;SHT31;53015;50.046;8.238;2023-05-20T03:56:19;13.89;72.94
66213;SHT31;53015;50.046;8.238;2023-05-20T03:58:45;13.90;72.98
66213;SHT31;53015;50.046;8.238;2023-05-20T04:01:10;13.90;73.10
66213;SHT31;53015;50.046;8.238;2023-05-20T04:03:36;13.88;73.31
66213;SHT31;53015;50.046;8.238;2023-05-20T04:06:01;13.92;73.17
66213;SHT31;53015;50.046;8.238;2023-05-20T04:08:27;13.92;73.22
66213;SHT31;53015;50.046;8.238;2023-05-20T04:10:55;13.90;73.28
66213;SHT31;53015;50.046;8.238;2023-05-20T04:13:23;13.88;73.43
66213;SHT31;53015;50.046;8.238;2023-05-20T04:15:49;13.82;73.57
66213;SHT31;53015;50.046;8.238;2023-05-20T04:18:14;13.83;73.68
66213;SHT31;53015;50.046;8.238;2023-05-20T04:20:39;13.79;73.88
66213;SHT31;53015;50.046;8.238;2023-05-20T04:23:05;13.83;73.89
66213;SHT31;53015;50.046;8.238;2023-05-20T04:25:31;13.86;73.69
66213;SHT31;53015;50.046;8.238;2023-05-20T04:27:56;13.82;73.85
66213;SHT31;53015;50.046;8.238;2023-05-20T04:30:23;13.86;73.85
66213;SHT31;53015;50.046;8.238;2023-05-20T04:32:49;13.86;73.78
66213;SHT31;53015;50.046;8.238;2023-05-20T04:35:14;13.85;74.09
66213;SHT31;53015;50.046;8.238;2023-05-20T04:37:40;13.81;74.23
66213;SHT31;53015;50.046;8.238;2023-05-20T04:40:06;13.79;74.37
66213;SHT31;53015;50.046;8.238;2023-05-20T04:42:32;13.81;74.29
66213;SHT31;53015;50.046;8.238;2023-05-20T04:44:57;13.79;74.31
66213;SHT31;53015;50.046;8.238;2023-05-20T04:47:24;13.81;74.39
66213;SHT31;53015;50.046;8.238;2023-05-20T04:49:50;13.92;74.14
66213;SHT31;53015;50.046;8.238;2023-05-20T04:52:15;13.89;74.36
66213;SHT31;53015;50.046;8.238;2023-05-20T04:54:41;13.85;74.35
66213;SHT31;53015;50.046;8.238;2023-05-20T04:57:06;13.89;74.36
66213;SHT31;53015;50.046;8.238;2023-05-20T04:59:31;13.92;74.32
66213;SHT31;53015;50.046;8.238;2023-05-20T05:01:57;13.95;74.49
66213;SHT31;53015;50.046;8.238;2023-05-20T05:04:24;13.99;74.48
66213;SHT31;53015;50.046;8.238;2023-05-20T05:06:49;13.99;74.35
66213;SHT31;53015;50.046;8.238;2023-05-20T05:09:15;13.99;74.45
66213;SHT31;53015;50.046;8.238;2023-05-20T05:11:40;14.04;74.32
66213;SHT31;53015;50.046;8.238;2023-05-20T05:14:06;13.99;74.66
66213;SHT31;53015;50.046;8.238;2023-05-20T05:16:31;14.01;74.71
66213;SHT31;53015;50.046;8.238;2023-05-20T05:18:57;14.06;74.53
66213;SHT31;53015;50.046;8.238;2023-05-20T05:21:24;14.08;74.36
66213;SHT31;53015;50.046;8.238;2023-05-20T05:23:49;14.16;74.57
66213;SHT31;53015;50.046;8.238;2023-05-20T05:26:15;14.19;74.38
66213;SHT31;53015;50.046;8.238;2023-05-20T05:28:41;14.17;74.32
66213;SHT31;53015;50.046;8.238;2023-05-20T05:31:06;14.22;74.55
66213;SHT31;53015;50.046;8.238;2023-05-20T05:33:32;14.32;74.30
66213;SHT31;53015;50.046;8.238;2023-05-20T05:35:57;14.22;74.47
66213;SHT31;53015;50.046;8.238;2023-05-20T05:38:24;14.30;74.32
66213;SHT31;53015;50.046;8.238;2023-05-20T05:40:49;14.32;74.47
66213;SHT31;53015;50.046;8.238;2023-05-20T05:43:15;14.30;74.49
66213;SHT31;53015;50.046;8.238;2023-05-20T05:45:40;14.27;74.63
66213;SHT31;53015;50.046;8.238;2023-05-20T05:48:06;14.29;74.67
66213;SHT31;53015;50.046;8.238;2023-05-20T05:50:32;14.32;74.75
66213;SHT31;53015;50.046;8.238;2023-05-20T05:52:57;14.34;74.72
66213;SHT31;53015;50.046;8.238;2023-05-20T05:55:24;14.41;74.74
66213;SHT31;53015;50.046;8.238;2023-05-20T05:57:50;14.53;74.21
66213;SHT31;53015;50.046;8.238;2023-05-20T06:00:16;14.65;73.85
66213;SHT31;53015;50.046;8.238;2023-05-20T06:02:41;14.64;73.85
66213;SHT31;53015;50.046;8.238;2023-05-20T06:05:08;14.68;74.30
66213;SHT31;53015;50.046;8.238;2023-05-20T06:07:34;14.64;73.94
66213;SHT31;53015;50.046;8.238;2023-05-20T06:09:59;14.77;74.27
66213;SHT31;53015;50.046;8.238;2023-05-20T06:12:26;14.85;73.93
66213;SHT31;53015;50.046;8.238;2023-05-20T06:14:51;14.98;73.44
66213;SHT31;53015;50.046;8.238;2023-05-20T06:17:17;15.13;72.96
66213;SHT31;53015;50.046;8.238;2023-05-20T06:19:42;15.20;72.86
66213;SHT31;53015;50.046;8.238;2023-05-20T06:22:08;15.42;72.70
66213;SHT31;53015;50.046;8.238;2023-05-20T06:24:33;15.47;72.31
66213;SHT31;53015;50.046;8.238;2023-05-20T06:26:59;15.64;71.47
66213;SHT31;53015;50.046;8.238;2023-05-20T06:29:26;15.70;71.70
66213;SHT31;53015;50.046;8.238;2023-05-20T06:31:51;15.97;71.65
66213;SHT31;53015;50.046;8.238;2023-05-20T06:34:17;16.20;70.90
66213;SHT31;53015;50.046;8.238;2023-05-20T06:36:42;16.33;69.93
66213;SHT31;53015;50.046;8.238;2023-05-20T06:39:08;16.60;69.80
66213;SHT31;53015;50.046;8.238;2023-05-20T06:41:33;16.83;69.98
66213;SHT31;53015;50.046;8.238;2023-05-20T06:43:59;17.15;68.94
66213;SHT31;53015;50.046;8.238;2023-05-20T06:46:25;17.38;68.24
66213;SHT31;53015;50.046;8.238;2023-05-20T06:48:51;17.30;67.83
66213;SHT31;53015;50.046;8.238;2023-05-20T06:51:17;17.51;67.69
66213;SHT31;53015;50.046;8.238;2023-05-20T06:53:43;17.83;67.43
66213;SHT31;53015;50.046;8.238;2023-05-20T06:56:08;17.77;67.40
66213;SHT31;53015;50.046;8.238;2023-05-20T06:58:34;17.53;67.29
66213;SHT31;53015;50.046;8.238;2023-05-20T07:01:00;17.59;66.45
66213;SHT31;53015;50.046;8.238;2023-05-20T07:03:27;17.70;66.25
66213;SHT31;53015;50.046;8.238;2023-05-20T07:05:52;17.66;66.31
66213;SHT31;53015;50.046;8.238;2023-05-20T07:08:18;17.56;67.22
66213;SHT31;53015;50.046;8.238;2023-05-20T07:10:43;17.86;66.64
66213;SHT31;53015;50.046;8.238;2023-05-20T07:13:09;18.05;66.26
66213;SHT31;53015;50.046;8.238;2023-05-20T07:15:34;17.83;66.82
66213;SHT31;53015;50.046;8.238;2023-05-20T07:18:00;17.84;66.58
66213;SHT31;53015;50.046;8.238;2023-05-20T07:20:27;17.71;66.61
66213;SHT31;53015;50.046;8.238;2023-05-20T07:22:52;17.42;67.25
66213;SHT31;53015;50.046;8.238;2023-05-20T07:25:18;17.36;67.89
66213;SHT31;53015;50.046;8.238;2023-05-20T07:27:43;17.42;68.17
66213;SHT31;53015;50.046;8.238;2023-05-20T07:30:09;17.57;67.82
66213;SHT31;53015;50.046;8.238;2023-05-20T07:32:35;17.43;67.82
66213;SHT31;53015;50.046;8.238;2023-05-20T07:35:00;17.14;68.13
66213;SHT31;53015;50.046;8.238;2023-05-20T07:37:27;17.45;68.28
66213;SHT31;53015;50.046;8.238;2023-05-20T07:39:52;17.38;67.61
66213;SHT31;53015;50.046;8.238;2023-05-20T07:42:18;17.21;67.90
66213;SHT31;53015;50.046;8.238;2023-05-20T07:44:43;17.30;67.79
66213;SHT31;53015;50.046;8.238;2023-05-20T07:47:09;17.35;68.10
66213;SHT31;53015;50.046;8.238;2023-05-20T07:49:34;17.40;68.16
66213;SHT31;53015;50.046;8.238;2023-05-20T07:52:00;17.21;68.41
66213;SHT31;53015;50.046;8.238;2023-05-20T07:54:27;17.28;68.63
66213;SHT31;53015;50.046;8.238;2023-05-20T07:56:52;17.38;68.28
66213;SHT31;53015;50.046;8.238;2023-05-20T07:59:18;17.23;68.01
66213;SHT31;53015;50.046;8.238;2023-05-20T08:01:43;17.16;68.63
66213;SHT31;53015;50.046;8.238;2023-05-20T08:04:09;17.35;68.22
66213;SHT31;53015;50.046;8.238;2023-05-20T08:06:34;17.29;68.19
66213;SHT31;53015;50.046;8.238;2023-05-20T08:08:59;17.28;68.47
66213;SHT31;53015;50.046;8.238;2023-05-20T08:11:26;17.42;67.92
66213;SHT31;53015;50.046;8.238;2023-05-20T08:13:52;17.54;68.03
66213;SHT31;53015;50.046;8.238;2023-05-20T08:16:19;17.42;67.44
66213;SHT31;53015;50.046;8.238;2023-05-20T08:18:45;17.56;67.90
66213;SHT31;53015;50.046;8.238;2023-05-20T08:21:11;17.66;67.57
66213;SHT31;53015;50.046;8.238;2023-05-20T08:23:36;18.02;68.45
66213;SHT31;53015;50.046;8.238;2023-05-20T08:26:02;17.93;66.72
66213;SHT31;53015;50.046;8.238;2023-05-20T08:28:29;18.25;66.44
66213;SHT31;53015;50.046;8.238;2023-05-20T08:30:55;18.48;66.07
66213;SHT31;53015;50.046;8.238;2023-05-20T08:33:20;18.57;65.37
66213;SHT31;53015;50.046;8.238;2023-05-20T08:35:46;18.81;65.39
66213;SHT31;53015;50.046;8.238;2023-05-20T08:38:12;18.77;65.00
66213;SHT31;53015;50.046;8.238;2023-05-20T08:40:37;18.73;64.92
66213;SHT31;53015;50.046;8.238;2023-05-20T08:43:03;18.93;64.62
66213;SHT31;53015;50.046;8.238;2023-05-20T08:45:31;18.81;64.85
66213;SHT31;53015;50.046;8.238;2023-05-20T08:47:57;18.67;65.03
66213;SHT31;53015;50.046;8.238;2023-05-20T08:50:23;18.55;65.70
66213;SHT31;53015;50.046;8.238;2023-05-20T08:52:48;18.53;65.51
66213;SHT31;53015;50.046;8.238;2023-05-20T08:55:15;18.24;65.95
66213;SHT31;53015;50.046;8.238;2023-05-20T08:57:42;18.35;65.54
66213;SHT31;53015;50.046;8.238;2023-05-20T09:00:09;18.67;65.38
66213;SHT31;53015;50.046;8.238;2023-05-20T09:02:37;18.90;65.17
66213;SHT31;53015;50.046;8.238;2023-05-20T09:05:03;18.96;65.13
66213;SHT31;53015;50.046;8.238;2023-05-20T09:07:28;18.71;64.70
66213;SHT31;53015;50.046;8.238;2023-05-20T09:09:54;18.86;65.18
66213;SHT31;53015;50.046;8.238;2023-05-20T09:12:19;18.69;65.39
66213;SHT31;53015;50.046;8.238;2023-05-20T09:14:45;19.08;65.25
66213;SHT31;53015;50.046;8.238;2023-05-20T09:17:11;19.42;64.04
66213;SHT31;53015;50.046;8.238;2023-05-20T09:19:38;19.62;63.84
66213;SHT31;53015;50.046;8.238;2023-05-20T09:22:04;19.98;63.36
66213;SHT31;53015;50.046;8.238;2023-05-20T09:24:29;20.24;63.15
66213;SHT31;53015;50.046;8.238;2023-05-20T09:26:55;19.97;62.10
66213;SHT31;53015;50.046;8.238;2023-05-20T09:29:20;19.87;63.01
66213;SHT31;53015;50.046;8.238;2023-05-20T09:31:47;19.89;62.41
66213;SHT31;53015;50.046;8.238;2023-05-20T09:34:12;19.73;62.70
66213;SHT31;53015;50.046;8.238;2023-05-20T09:36:41;19.61;63.46
66213;SHT31;53015;50.046;8.238;2023-05-20T09:39:11;19.97;63.61
66213;SHT31;53015;50.046;8.238;2023-05-20T09:41:38;20.07;62.40
66213;SHT31;53015;50.046;8.238;2023-05-20T09:44:04;20.21;61.66
66213;SHT31;53015;50.046;8.238;2023-05-20T09:46:29;20.59;61.49
66213;SHT31;53015;50.046;8.238;2023-05-20T09:48:55;20.39;61.53
66213;SHT31;53015;50.046;8.238;2023-05-20T09:51:22;20.14;62.08
66213;SHT31;53015;50.046;8.238;2023-05-20T09:53:49;20.41;62.19
66213;SHT31;53015;50.046;8.238;2023-05-20T09:56:16;21.00;61.43
66213;SHT31;53015;50.046;8.238;2023-05-20T09:58:43;20.83;60.29
66213;SHT31;53015;50.046;8.238;2023-05-20T10:01:09;20.75;61.30
66213;SHT31;53015;50.046;8.238;2023-05-20T10:03:35;20.56;60.91
66213;SHT31;53015;50.046;8.238;2023-05-20T10:09:13;20.45;61.16
66213;SHT31;53015;50.046;8.238;2023-05-20T10:11:55;20.53;61.13
66213;SHT31;53015;50.046;8.238;2023-05-20T10:14:33;20.63;60.67
66213;SHT31;53015;50.046;8.238;2023-05-20T10:17:06;20.68;59.84
66213;SHT31;53015;50.046;8.238;2023-05-20T10:19:34;20.57;60.71
66213;SHT31;53015;50.046;8.238;2023-05-20T10:22:00;20.55;61.17
66213;SHT31;53015;50.046;8.238;2023-05-20T10:24:31;20.06;61.86
66213;SHT31;53015;50.046;8.238;2023-05-20T10:26:58;20.07;61.66
66213;SHT31;53015;50.046;8.238;2023-05-20T10:29:23;20.07;61.64
66213;SHT31;53015;50.046;8.238;2023-05-20T10:31:50;20.14;61.90
66213;SHT31;53015;50.046;8.238;2023-05-20T10:34:16;19.87;61.77
66213;SHT31;53015;50.046;8.238;2023-05-20T10:36:44;20.22;61.42
66213;SHT31;53015;50.046;8.238;2023-05-20T10:39:14;20.87;61.01
66213;SHT31;53015;50.046;8.238;2023-05-20T10:41:41;20.73;60.10
66213;SHT31;53015;50.046;8.238;2023-05-20T10:44:06;20.86;60.26
66213;SHT31;53015;50.046;8.238;2023-05-20T10:46:33;20.35;60.90
66213;SHT31;53015;50.046;8.238;2023-05-20T10:49:00;20.06;61.56
66213;SHT31;53015;50.046;8.238;2023-05-20T10:51:28;20.62;61.44
66213;SHT31;53015;50.046;8.238;2023-05-20T10:53:54;20.94;60.29
66213;SHT31;53015;50.046;8.238;2023-05-20T10:56:21;20.36;60.65
66213;SHT31;53015;50.046;8.238;2023-05-20T10:58:49;20.45;61.30
66213;SHT31;53015;50.046;8.238;2023-05-20T11:01:15;20.51;60.59
66213;SHT31;53015;50.046;8.238;2023-05-20T11:03:42;20.89;60.92
66213;SHT31;53015;50.046;8.238;2023-05-20T11:06:11;20.52;60.90
66213;SHT31;53015;50.046;8.238;2023-05-20T11:08:36;20.21;62.29
66213;SHT31;53015;50.046;8.238;2023-05-20T11:11:02;20.62;62.82
66213;SHT31;53015;50.046;8.238;2023-05-20T11:13:28;20.55;60.68
66213;SHT31;53015;50.046;8.238;2023-05-20T11:15:56;20.76;60.30
66213;SHT31;53015;50.046;8.238;2023-05-20T11:18:21;20.84;60.49
66213;SHT31;53015;50.046;8.238;2023-05-20T11:20:47;20.71;60.17
66213;SHT31;53015;50.046;8.238;2023-05-20T11:23:13;20.90;60.63
66213;SHT31;53015;50.046;8.238;2023-05-20T11:25:39;20.90;59.92
66213;SHT31;53015;50.046;8.238;2023-05-20T11:28:08;20.91;60.12
66213;SHT31;53015;50.046;8.238;2023-05-20T11:30:34;20.83;60.06
66213;SHT31;53015;50.046;8.238;2023-05-20T11:33:02;21.31;60.96
66213;SHT31;53015;50.046;8.238;2023-05-20T11:35:29;21.76;58.70
66213;SHT31;53015;50.046;8.238;2023-05-20T11:37:56;21.67;57.61
66213;SHT31;53015;50.046;8.238;2023-05-20T11:40:23;22.06;57.71
66213;SHT31;53015;50.046;8.238;2023-05-20T11:42:52;22.18;55.97
66213;SHT31;53015;50.046;8.238;2023-05-20T11:45:17;22.09;56.85
66213;SHT31;53015;50.046;8.238;2023-05-20T11:47:43;22.00;57.14
66213;SHT31;53015;50.046;8.238;2023-05-20T11:50:15;21.71;57.56
66213;SHT31;53015;50.046;8.238;2023-05-20T11:52:41;21.56;58.52
66213;SHT31;53015;50.046;8.238;2023-05-20T11:55:09;21.35;58.31
66213;SHT31;53015;50.046;8.238;2023-05-20T11:57:34;21.96;58.58
66213;SHT31;53015;50.046;8.238;2023-05-20T12:00:00;22.04;56.90
66213;SHT31;53015;50.046;8.238;2023-05-20T12:02:25;22.47;55.83
66213;SHT31;53015;50.046;8.238;2023-05-20T12:04:51;22.49;55.99
66213;SHT31;53015;50.046;8.238;2023-05-20T12:07:18;23.09;56.02
66213;SHT31;53015;50.046;8.238;2023-05-20T12:09:43;22.91;55.46
66213;SHT31;53015;50.046;8.238;2023-05-20T12:12:09;22.95;55.24
66213;SHT31;53015;50.046;8.238;2023-05-20T12:14:34;22.29;56.82
66213;SHT31;53015;50.046;8.238;2023-05-20T12:16:59;22.13;57.02
66213;SHT31;53015;50.046;8.238;2023-05-20T12:19:25;22.29;57.76
66213;SHT31;53015;50.046;8.238;2023-05-20T12:21:50;22.22;56.65
66213;SHT31;53015;50.046;8.238;2023-05-20T12:24:17;22.24;56.42
66213;SHT31;53015;50.046;8.238;2023-05-20T12:26:43;22.41;56.16
66213;SHT31;53015;50.046;8.238;2023-05-20T12:29:08;22.41;56.21
66213;SHT31;53015;50.046;8.238;2023-05-20T12:31:33;22.68;57.34
66213;SHT31;53015;50.046;8.238;2023-05-20T12:33:59;22.86;56.58
66213;SHT31;53015;50.046;8.238;2023-05-20T12:36:24;22.78;55.73
66213;SHT31;53015;50.046;8.238;2023-05-20T12:38:50;22.51;56.01
66213;SHT31;53015;50.046;8.238;2023-05-20T12:41:17;22.16;56.20
66213;SHT31;53015;50.046;8.238;2023-05-20T12:43:42;21.99;57.47
66213;SHT31;53015;50.046;8.238;2023-05-20T12:46:07;21.78;58.50
66213;SHT31;53015;50.046;8.238;2023-05-20T12:48:33;21.73;58.12
66213;SHT31;53015;50.046;8.238;2023-05-20T12:50:59;21.94;58.35
66213;SHT31;53015;50.046;8.238;2023-05-20T12:53:24;21.58;58.56
66213;SHT31;53015;50.046;8.238;2023-05-20T12:55:50;21.75;58.78
66213;SHT31;53015;50.046;8.238;2023-05-20T12:58:17;22.14;57.56
66213;SHT31;53015;50.046;8.238;2023-05-20T13:00:42;22.29;58.01
66213;SHT31;53015;50.046;8.238;2023-05-20T13:03:07;22.02;56.59
66213;SHT31;53015;50.046;8.238;2023-05-20T13:05:33;22.38;55.95
66213;SHT31;53015;50.046;8.238;2023-05-20T13:07:59;22.93;56.47
66213;SHT31;53015;50.046;8.238;2023-05-20T13:10:24;22.92;55.26
66213;SHT31;53015;50.046;8.238;2023-05-20T13:12:50;23.13;55.14
66213;SHT31;53015;50.046;8.238;2023-05-20T13:15:17;22.99;54.94
66213;SHT31;53015;50.046;8.238;2023-05-20T13:17:42;23.00;55.35
66213;SHT31;53015;50.046;8.238;2023-05-20T13:20:08;22.81;54.96
66213;SHT31;53015;50.046;8.238;2023-05-20T13:22:34;22.75;54.58
66213;SHT31;53015;50.046;8.238;2023-05-20T13:25:00;22.43;55.81
66213;SHT31;53015;50.046;8.238;2023-05-20T13:27:25;22.30;57.34
66213;SHT31;53015;50.046;8.238;2023-05-20T13:29:51;22.04;57.00
66213;SHT31;53015;50.046;8.238;2023-05-20T13:32:17;21.75;57.31
66213;SHT31;53015;50.046;8.238;2023-05-20T13:34:43;22.25;56.01
66213;SHT31;53015;50.046;8.238;2023-05-20T13:37:09;22.64;55.94
66213;SHT31;53015;50.046;8.238;2023-05-20T13:39:34;22.41;55.39
66213;SHT31;53015;50.046;8.238;2023-05-20T13:42:00;22.31;56.49
66213;SHT31;53015;50.046;8.238;2023-05-20T13:44:26;22.37;56.47
66213;SHT31;53015;50.046;8.238;2023-05-20T13:46:51;22.11;55.58
66213;SHT31;53015;50.046;8.238;2023-05-20T13:49:18;21.65;56.87
66213;SHT31;53015;50.046;8.238;2023-05-20T13:51:43;21.38;57.00
66213;SHT31;53015;50.046;8.238;2023-05-20T13:54:09;21.27;57.64
66213;SHT31;53015;50.046;8.238;2023-05-20T13:56:34;21.20;57.72
66213;SHT31;53015;50.046;8.238;2023-05-20T13:59:00;21.31;57.35
66213;SHT31;53015;50.046;8.238;2023-05-20T14:01:27;21.04;58.30
66213;SHT31;53015;50.046;8.238;2023-05-20T14:03:52;21.39;58.05
66213;SHT31;53015;50.046;8.238;2023-05-20T14:06:19;21.86;57.16
66213;SHT31;53015;50.046;8.238;2023-05-20T14:08:45;22.07;56.63
66213;SHT31;53015;50.046;8.238;2023-05-20T14:11:11;22.48;56.35
66213;SHT31;53015;50.046;8.238;2023-05-20T14:13:37;22.69;55.88
66213;SHT31;53015;50.046;8.238;2023-05-20T14:16:02;22.58;55.98
66213;SHT31;53015;50.046;8.238;2023-05-20T14:18:28;22.47;55.87
66213;SHT31;53015;50.046;8.238;2023-05-20T14:20:53;22.11;56.56
66213;SHT31;53015;50.046;8.238;2023-05-20T14:23:20;22.00;56.81
66213;SHT31;53015;50.046;8.238;2023-05-20T14:25:45;22.24;57.04
66213;SHT31;53015;50.046;8.238;2023-05-20T14:28:11;22.40;56.01
66213;SHT31;53015;50.046;8.238;2023-05-20T14:30:36;22.11;56.86
66213;SHT31;53015;50.046;8.238;2023-05-20T14:33:02;22.21;56.72
66213;SHT31;53015;50.046;8.238;2023-05-20T14:35:27;21.85;57.95
66213;SHT31;53015;50.046;8.238;2023-05-20T14:37:53;22.20;56.79
66213;SHT31;53015;50.046;8.238;2023-05-20T14:40:19;22.24;56.50
66213;SHT31;53015;50.046;8.238;2023-05-20T14:42:45;22.57;56.86
66213;SHT31;53015;50.046;8.238;2023-05-20T14:45:10;22.07;57.48
66213;SHT31;53015;50.046;8.238;2023-05-20T14:47:36;21.99;57.83
66213;SHT31;53015;50.046;8.238;2023-05-20T14:50:01;21.99;57.79
66213;SHT31;53015;50.046;8.238;2023-05-20T14:52:27;22.17;57.54
66213;SHT31;53015;50.046;8.238;2023-05-20T14:54:52;22.58;57.04
66213;SHT31;53015;50.046;8.238;2023-05-20T14:57:19;22.61;56.01
66213;SHT31;53015;50.046;8.238;2023-05-20T14:59:45;22.72;56.55
66213;SHT31;53015;50.046;8.238;2023-05-20T15:02:10;22.51;58.12
66213;SHT31;53015;50.046;8.238;2023-05-20T15:04:38;22.33;57.18
66213;SHT31;53015;50.046;8.238;2023-05-20T15:07:04;22.72;56.88
66213;SHT31;53015;50.046;8.238;2023-05-20T15:09:29;22.85;56.65
66213;SHT31;53015;50.046;8.238;2023-05-20T15:11:55;22.82;56.35
66213;SHT31;53015;50.046;8.238;2023-05-20T15:14:22;23.13;55.97
66213;SHT31;53015;50.046;8.238;2023-05-20T15:16:47;22.84;55.11
66213;SHT31;53015;50.046;8.238;2023-05-20T15:19:13;22.92;55.73
66213;SHT31;53015;50.046;8.238;2023-05-20T15:21:39;22.66;55.65
66213;SHT31;53015;50.046;8.238;2023-05-20T15:24:04;22.52;55.72